createdAt,value
2023-03-07T00:00:25.507Z,6.16
2023-03-07T00:01:26.129Z,6.15
2023-03-07T00:02:26.150Z,6.16
2023-03-07T00:03:25.494Z,6.16
2023-03-07T00:04:25.440Z,6.15
2023-03-07T00:05:26.096Z,6.15
2023-03-07T00:06:26.076Z,6.15
2023-03-07T00:07:26.357Z,6.15
2023-03-07T00:08:26.066Z,6.15
2023-03-07T00:09:25.375Z,6.15
2023-03-07T00:10:26.066Z,6.15
2023-03-07T00:11:26.017Z,6.16
2023-03-07T00:12:26.026Z,6.16
2023-03-07T00:13:26.015Z,6.17
2023-03-07T00:14:26.015Z,6.17
2023-03-07T00:15:25.315Z,6.18
2023-03-07T00:16:26.008Z,6.19
2023-03-07T00:17:25.977Z,6.20
2023-03-07T00:18:25.962Z,6.22
2023-03-07T00:19:25.266Z,6.22
2023-03-07T00:20:25.255Z,6.23
2023-03-07T00:21:25.906Z,6.25
2023-03-07T00:22:25.929Z,6.26
2023-03-07T00:23:25.905Z,6.29
2023-03-07T00:24:25.896Z,6.28
2023-03-07T00:25:25.218Z,6.30
2023-03-07T00:26:25.887Z,6.31
2023-03-07T00:27:25.874Z,6.32
2023-03-07T00:28:25.169Z,6.33
2023-03-07T00:29:25.858Z,6.35
2023-03-07T00:30:25.145Z,6.37
2023-03-07T00:31:25.210Z,6.38
2023-03-07T00:32:25.210Z,6.39
2023-03-07T00:33:25.808Z,6.40
2023-03-07T00:34:25.140Z,6.41
2023-03-07T00:35:25.789Z,6.41
2023-03-07T00:36:25.743Z,6.42
2023-03-07T00:37:25.107Z,6.43
2023-03-07T00:38:25.093Z,6.43
2023-03-07T00:39:25.728Z,6.46
2023-03-07T00:40:25.078Z,6.45
2023-03-07T00:41:25.712Z,6.46
2023-03-07T00:42:25.690Z,6.46
2023-03-07T00:43:25.691Z,6.47
2023-03-07T00:44:25.020Z,6.47
2023-03-07T00:45:25.040Z,6.47
2023-03-07T00:46:25.661Z,6.48
2023-03-07T00:47:25.631Z,6.48
2023-03-07T00:48:25.643Z,6.50
2023-03-07T00:49:25.632Z,6.50
2023-03-07T00:50:24.942Z,6.51
2023-03-07T00:51:24.931Z,6.52
2023-03-07T00:52:24.949Z,6.53
2023-03-07T00:53:25.585Z,6.53
2023-03-07T00:54:25.573Z,6.54
2023-03-07T00:55:25.564Z,6.55
2023-03-07T00:56:25.555Z,6.56
2023-03-07T00:57:24.896Z,6.56
2023-03-07T00:58:25.534Z,6.56
2023-03-07T00:59:25.523Z,6.57
2023-03-07T01:00:25.510Z,6.57
2023-03-07T01:01:25.501Z,6.58
2023-03-07T01:02:25.475Z,6.58
2023-03-07T01:03:25.485Z,6.57
2023-03-07T01:04:25.511Z,6.57
2023-03-07T01:05:25.456Z,6.56
2023-03-07T01:06:25.445Z,6.57
2023-03-07T01:07:24.778Z,6.57
2023-03-07T01:08:25.424Z,6.56
2023-03-07T01:09:25.422Z,6.56
2023-03-07T01:10:25.405Z,6.55
2023-03-07T01:11:25.437Z,6.55
2023-03-07T01:12:25.365Z,6.55
2023-03-07T01:13:25.401Z,6.56
2023-03-07T01:14:25.357Z,6.57
2023-03-07T01:15:25.347Z,6.56
2023-03-07T01:16:25.356Z,6.57
2023-03-07T01:17:25.313Z,6.59
2023-03-07T01:18:25.316Z,6.60
2023-03-07T01:19:24.654Z,6.61
2023-03-07T01:20:25.303Z,6.62
2023-03-07T01:21:25.279Z,6.63
2023-03-07T01:22:25.255Z,6.64
2023-03-07T01:23:24.576Z,6.65
2023-03-07T01:24:24.569Z,6.65
2023-03-07T01:25:24.581Z,6.66
2023-03-07T01:26:25.232Z,6.67
2023-03-07T01:27:24.560Z,6.67
2023-03-07T01:28:25.208Z,6.69
2023-03-07T01:29:25.203Z,6.70
2023-03-07T01:30:24.500Z,6.71
2023-03-07T01:31:25.226Z,6.72
2023-03-07T01:32:24.527Z,6.72
2023-03-07T01:33:25.158Z,6.74
2023-03-07T01:34:24.455Z,6.74
2023-03-07T01:35:25.134Z,6.75
2023-03-07T01:36:24.525Z,6.76
2023-03-07T01:37:25.119Z,6.76
2023-03-07T01:38:25.101Z,6.76
2023-03-07T01:39:24.441Z,6.76
2023-03-07T01:40:25.080Z,6.76
2023-03-07T01:41:25.076Z,6.75
2023-03-07T01:42:25.042Z,6.75
2023-03-07T01:43:24.362Z,6.75
2023-03-07T01:44:25.076Z,6.77
2023-03-07T01:45:25.025Z,6.78
2023-03-07T01:46:24.373Z,6.78
2023-03-07T01:47:24.983Z,6.79
2023-03-07T01:48:24.996Z,6.78
2023-03-07T01:49:25.030Z,6.80
2023-03-07T01:50:24.980Z,6.81
2023-03-07T01:51:24.970Z,6.81
2023-03-07T01:52:24.939Z,6.81
2023-03-07T01:53:24.939Z,6.81
2023-03-07T01:54:24.257Z,6.82
2023-03-07T01:55:24.252Z,6.82
2023-03-07T01:56:24.901Z,6.84
2023-03-07T01:57:24.896Z,6.83
2023-03-07T01:58:24.885Z,6.85
2023-03-07T01:59:24.194Z,6.84
2023-03-07T02:00:24.171Z,6.86
2023-03-07T02:01:24.199Z,6.85
2023-03-07T02:02:24.331Z,6.85
2023-03-07T02:03:24.832Z,6.86
2023-03-07T02:04:26.122Z,6.86
2023-03-07T02:05:24.118Z,6.86
2023-03-07T02:06:24.111Z,6.87
2023-03-07T02:07:24.779Z,6.88
2023-03-07T02:08:24.781Z,6.87
2023-03-07T02:09:24.762Z,6.87
2023-03-07T02:10:24.754Z,6.87
2023-03-07T02:11:24.055Z,6.87
2023-03-07T02:12:24.059Z,6.88
2023-03-07T02:13:24.051Z,6.88
2023-03-07T02:14:24.023Z,6.89
2023-03-07T02:15:24.967Z,6.88
2023-03-07T02:16:24.002Z,6.88
2023-03-07T02:17:24.666Z,6.88
2023-03-07T02:18:24.670Z,6.89
2023-03-07T02:19:24.038Z,6.88
2023-03-07T02:20:24.644Z,6.88
2023-03-07T02:21:23.962Z,6.89
2023-03-07T02:22:24.602Z,6.89
2023-03-07T02:23:24.614Z,6.90
2023-03-07T02:24:25.855Z,6.90
2023-03-07T02:25:24.594Z,6.92
2023-03-07T02:26:24.585Z,6.93
2023-03-07T02:27:23.932Z,6.93
2023-03-07T02:28:24.564Z,6.95
2023-03-07T02:29:24.565Z,6.94
2023-03-07T02:30:24.557Z,6.94
2023-03-07T02:31:24.562Z,6.93
2023-03-07T02:32:24.551Z,6.92
2023-03-07T02:33:24.519Z,6.90
2023-03-07T02:34:24.509Z,6.88
2023-03-07T02:35:24.521Z,6.85
2023-03-07T02:36:24.478Z,6.84
2023-03-07T02:37:23.827Z,6.81
2023-03-07T02:38:24.475Z,6.79
2023-03-07T02:39:24.448Z,6.76
2023-03-07T02:40:24.441Z,6.74
2023-03-07T02:41:23.779Z,6.73
2023-03-07T02:42:25.710Z,6.71
2023-03-07T02:43:23.720Z,6.69
2023-03-07T02:44:24.404Z,6.67
2023-03-07T02:45:24.378Z,6.66
2023-03-07T02:46:24.394Z,6.65
2023-03-07T02:47:23.700Z,6.64
2023-03-07T02:48:24.406Z,6.61
2023-03-07T02:49:23.660Z,6.60
2023-03-07T02:50:24.328Z,6.60
2023-03-07T02:51:24.336Z,6.58
2023-03-07T02:52:24.293Z,6.57
2023-03-07T02:53:23.626Z,6.56
2023-03-07T02:54:24.296Z,6.56
2023-03-07T02:55:24.279Z,6.55
2023-03-07T02:56:24.398Z,6.55
2023-03-07T02:57:24.246Z,6.55
2023-03-07T02:58:23.569Z,6.55
2023-03-07T02:59:23.566Z,6.55
2023-03-07T03:00:23.596Z,6.56
2023-03-07T03:01:24.230Z,6.56
2023-03-07T03:02:24.193Z,6.58
2023-03-07T03:03:24.191Z,6.59
2023-03-07T03:04:24.176Z,6.61
2023-03-07T03:05:23.495Z,6.63
2023-03-07T03:06:24.158Z,6.64
2023-03-07T03:07:23.525Z,6.66
2023-03-07T03:08:24.146Z,6.68
2023-03-07T03:09:24.140Z,6.70
2023-03-07T03:10:24.116Z,6.71
2023-03-07T03:11:23.463Z,6.72
2023-03-07T03:12:24.080Z,6.73
2023-03-07T03:13:24.087Z,6.74
2023-03-07T03:14:24.081Z,6.74
2023-03-07T03:15:24.066Z,6.76
2023-03-07T03:16:23.397Z,6.77
2023-03-07T03:17:23.369Z,6.76
2023-03-07T03:18:24.030Z,6.77
2023-03-07T03:19:24.025Z,6.78
2023-03-07T03:20:23.328Z,6.80
2023-03-07T03:21:23.998Z,6.81
2023-03-07T03:22:23.970Z,6.83
2023-03-07T03:23:23.340Z,6.84
2023-03-07T03:24:23.291Z,6.85
2023-03-07T03:25:23.964Z,6.86
2023-03-07T03:26:23.956Z,6.87
2023-03-07T03:27:23.902Z,6.89
2023-03-07T03:28:23.901Z,6.89
2023-03-07T03:29:23.263Z,6.90
2023-03-07T03:30:23.923Z,6.92
2023-03-07T03:31:23.279Z,6.92
2023-03-07T03:32:23.868Z,6.93
2023-03-07T03:33:23.851Z,6.94
2023-03-07T03:34:23.865Z,6.95
2023-03-07T03:35:23.172Z,6.96
2023-03-07T03:36:23.831Z,6.97
2023-03-07T03:37:23.809Z,6.98
2023-03-07T03:38:23.152Z,6.98
2023-03-07T03:39:23.811Z,7.00
2023-03-07T03:40:23.794Z,7.00
2023-03-07T03:41:23.782Z,7.00
2023-03-07T03:42:23.752Z,7.01
2023-03-07T03:43:23.767Z,7.01
2023-03-07T03:44:23.059Z,7.02
2023-03-07T03:45:23.761Z,7.02
2023-03-07T03:46:23.745Z,7.02
2023-03-07T03:47:23.708Z,7.02
2023-03-07T03:48:23.706Z,7.02
2023-03-07T03:49:23.699Z,7.02
2023-03-07T03:50:22.989Z,7.03
2023-03-07T03:51:23.674Z,7.02
2023-03-07T03:52:23.633Z,7.02
2023-03-07T03:53:23.632Z,7.02
2023-03-07T03:54:23.648Z,7.03
2023-03-07T03:55:22.945Z,7.03
2023-03-07T03:56:23.631Z,7.03
2023-03-07T03:57:22.943Z,7.03
2023-03-07T03:58:23.584Z,7.04
2023-03-07T03:59:23.595Z,7.05
2023-03-07T04:00:23.577Z,7.06
2023-03-07T04:01:23.573Z,7.05
2023-03-07T04:02:23.003Z,7.06
2023-03-07T04:03:23.529Z,7.07
2023-03-07T04:04:22.895Z,7.07
2023-03-07T04:05:23.533Z,7.07
2023-03-07T04:06:23.515Z,7.07
2023-03-07T04:07:22.823Z,7.07
2023-03-07T04:08:22.825Z,7.08
2023-03-07T04:09:23.486Z,7.08
2023-03-07T04:10:23.474Z,7.08
2023-03-07T04:11:22.817Z,7.08
2023-03-07T04:12:23.445Z,7.08
2023-03-07T04:13:23.429Z,7.08
2023-03-07T04:14:22.762Z,7.08
2023-03-07T04:15:23.423Z,7.06
2023-03-07T04:16:23.471Z,7.06
2023-03-07T04:17:22.747Z,7.06
2023-03-07T04:18:23.365Z,7.04
2023-03-07T04:19:22.715Z,7.02
2023-03-07T04:20:22.693Z,7.02
2023-03-07T04:21:23.356Z,7.01
2023-03-07T04:22:22.694Z,7.00
2023-03-07T04:23:22.701Z,6.99
2023-03-07T04:24:22.665Z,6.98
2023-03-07T04:25:22.626Z,6.98
2023-03-07T04:26:22.621Z,6.97
2023-03-07T04:27:22.625Z,6.97
2023-03-07T04:28:22.614Z,6.96
2023-03-07T04:29:22.623Z,6.95
2023-03-07T04:30:22.636Z,6.93
2023-03-07T04:31:24.580Z,6.94
2023-03-07T04:32:23.266Z,6.93
2023-03-07T04:33:23.204Z,6.92
2023-03-07T04:34:23.215Z,6.91
2023-03-07T04:35:23.205Z,6.91
2023-03-07T04:36:23.196Z,6.90
2023-03-07T04:37:23.196Z,6.88
2023-03-07T04:38:22.506Z,6.87
2023-03-07T04:39:22.496Z,6.86
2023-03-07T04:40:23.156Z,6.84
2023-03-07T04:41:23.151Z,6.83
2023-03-07T04:42:23.127Z,6.83
2023-03-07T04:43:23.104Z,6.81
2023-03-07T04:44:22.448Z,6.80
2023-03-07T04:45:23.098Z,6.80
2023-03-07T04:46:22.484Z,6.79
2023-03-07T04:47:23.080Z,6.78
2023-03-07T04:48:23.041Z,6.77
2023-03-07T04:49:23.040Z,6.77
2023-03-07T04:50:22.370Z,6.75
2023-03-07T04:51:23.037Z,6.74
2023-03-07T04:52:24.299Z,6.73
2023-03-07T04:53:23.006Z,6.72
2023-03-07T04:54:22.388Z,6.71
2023-03-07T04:55:22.998Z,6.70
2023-03-07T04:56:22.986Z,6.69
2023-03-07T04:57:22.291Z,6.67
2023-03-07T04:58:22.319Z,6.66
2023-03-07T04:59:22.961Z,6.65
2023-03-07T05:00:22.947Z,6.64
2023-03-07T05:01:22.356Z,6.63
2023-03-07T05:02:22.269Z,6.63
2023-03-07T05:03:22.249Z,6.62
2023-03-07T05:04:22.315Z,6.62
2023-03-07T05:05:22.220Z,6.62
2023-03-07T05:06:22.193Z,6.61
2023-03-07T05:07:22.184Z,6.60
2023-03-07T05:08:22.197Z,6.61
2023-03-07T05:09:22.843Z,6.59
2023-03-07T05:10:22.168Z,6.59
2023-03-07T05:11:22.177Z,6.59
2023-03-07T05:12:22.145Z,6.59
2023-03-07T05:13:22.791Z,6.58
2023-03-07T05:14:22.144Z,6.58
2023-03-07T05:15:22.782Z,6.57
2023-03-07T05:16:22.992Z,6.57
2023-03-07T05:17:22.074Z,6.56
2023-03-07T05:18:22.064Z,6.56
2023-03-07T05:19:22.721Z,6.56
2023-03-07T05:20:22.731Z,6.56
2023-03-07T05:21:22.765Z,6.55
2023-03-07T05:22:22.706Z,6.54
2023-03-07T05:23:22.710Z,6.55
2023-03-07T05:24:22.667Z,6.54
2023-03-07T05:25:21.999Z,6.54
2023-03-07T05:26:22.019Z,6.54
2023-03-07T05:27:22.653Z,6.53
2023-03-07T05:28:22.642Z,6.52
2023-03-07T05:29:22.647Z,6.52
2023-03-07T05:30:22.614Z,6.53
2023-03-07T05:31:22.665Z,6.52
2023-03-07T05:32:22.612Z,6.52
2023-03-07T05:33:22.585Z,6.53
2023-03-07T05:34:22.565Z,6.53
2023-03-07T05:35:22.564Z,6.53
2023-03-07T05:36:21.873Z,6.53
2023-03-07T05:37:22.543Z,6.53
2023-03-07T05:38:22.541Z,6.54
2023-03-07T05:39:22.503Z,6.55
2023-03-07T05:40:23.255Z,6.56
2023-03-07T05:41:21.805Z,6.56
2023-03-07T05:42:21.830Z,6.56
2023-03-07T05:43:21.818Z,6.57
2023-03-07T05:44:22.448Z,6.59
2023-03-07T05:45:22.457Z,6.58
2023-03-07T05:46:22.488Z,6.58
2023-03-07T05:47:21.743Z,6.57
2023-03-07T05:48:22.427Z,6.57
2023-03-07T05:49:21.758Z,6.56
2023-03-07T05:50:22.407Z,6.55
2023-03-07T05:51:22.396Z,6.54
2023-03-07T05:52:22.390Z,6.52
2023-03-07T05:53:22.379Z,6.52
2023-03-07T05:54:22.340Z,6.50
2023-03-07T05:55:22.357Z,6.49
2023-03-07T05:56:22.353Z,6.49
2023-03-07T05:57:22.330Z,6.48
2023-03-07T05:58:22.325Z,6.47
2023-03-07T05:59:22.300Z,6.47
2023-03-07T06:00:21.624Z,6.46
2023-03-07T06:01:22.311Z,6.45
2023-03-07T06:02:21.656Z,6.44
2023-03-07T06:03:22.403Z,6.42
2023-03-07T06:04:22.240Z,6.40
2023-03-07T06:05:24.253Z,6.38
2023-03-07T06:06:21.572Z,6.36
2023-03-07T06:07:22.224Z,6.33
2023-03-07T06:08:21.581Z,6.30
2023-03-07T06:09:22.189Z,6.28
2023-03-07T06:10:22.193Z,6.25
2023-03-07T06:11:21.495Z,6.22
2023-03-07T06:12:22.173Z,6.20
2023-03-07T06:13:22.184Z,6.18
2023-03-07T06:14:21.508Z,6.16
2023-03-07T06:15:24.374Z,6.13
2023-03-07T06:16:21.487Z,6.12
2023-03-07T06:17:22.124Z,6.09
2023-03-07T06:18:22.109Z,6.07
2023-03-07T06:19:22.085Z,6.05
2023-03-07T06:20:22.084Z,6.01
2023-03-07T06:21:22.073Z,5.99
2023-03-07T06:22:23.313Z,5.97
2023-03-07T06:23:21.362Z,5.96
2023-03-07T06:24:21.387Z,5.94
2023-03-07T06:25:22.044Z,5.93
2023-03-07T06:26:21.359Z,5.91
2023-03-07T06:27:22.014Z,5.88
2023-03-07T06:28:22.003Z,5.86
2023-03-07T06:29:21.345Z,5.84
2023-03-07T06:30:21.986Z,5.82
2023-03-07T06:31:22.063Z,5.81
2023-03-07T06:32:21.296Z,5.78
2023-03-07T06:33:21.953Z,5.77
2023-03-07T06:34:21.928Z,5.75
2023-03-07T06:35:21.263Z,5.73
2023-03-07T06:36:21.916Z,5.71
2023-03-07T06:37:21.949Z,5.70
2023-03-07T06:38:21.225Z,5.68
2023-03-07T06:39:21.874Z,5.65
2023-03-07T06:40:21.952Z,5.63
2023-03-07T06:41:21.199Z,5.62
2023-03-07T06:42:21.197Z,5.61
2023-03-07T06:43:21.847Z,5.60
2023-03-07T06:44:21.817Z,5.60
2023-03-07T06:45:21.832Z,5.59
2023-03-07T06:46:21.117Z,5.58
2023-03-07T06:47:21.814Z,5.58
2023-03-07T06:48:21.797Z,5.57
2023-03-07T06:49:21.759Z,5.55
2023-03-07T06:50:33.421Z,5.55
2023-03-07T06:51:22.073Z,5.55
2023-03-07T06:52:21.063Z,5.54
2023-03-07T06:53:21.741Z,5.53
2023-03-07T06:54:21.703Z,5.53
2023-03-07T06:55:21.700Z,5.52
2023-03-07T06:56:21.732Z,5.51
2023-03-07T06:57:21.700Z,5.51
2023-03-07T06:58:21.000Z,5.50
2023-03-07T06:59:21.010Z,5.49
2023-03-07T07:00:21.650Z,5.48
2023-03-07T07:01:20.988Z,5.47
2023-03-07T07:02:21.740Z,5.47
2023-03-07T07:03:21.692Z,5.46
2023-03-07T07:04:20.954Z,5.45
2023-03-07T07:05:20.962Z,5.45
2023-03-07T07:06:21.601Z,5.45
2023-03-07T07:07:21.591Z,5.45
2023-03-07T07:08:21.600Z,5.44
2023-03-07T07:09:20.911Z,5.45
2023-03-07T07:10:21.542Z,5.44
2023-03-07T07:11:21.553Z,5.45
2023-03-07T07:12:21.555Z,5.45
2023-03-07T07:13:20.859Z,5.45
2023-03-07T07:14:21.511Z,5.45
2023-03-07T07:15:20.867Z,5.44
2023-03-07T07:16:21.568Z,5.44
2023-03-07T07:17:20.827Z,5.44
2023-03-07T07:18:20.820Z,5.44
2023-03-07T07:19:21.461Z,5.43
2023-03-07T07:20:21.431Z,5.43
2023-03-07T07:21:21.444Z,5.43
2023-03-07T07:22:21.431Z,5.44
2023-03-07T07:23:21.420Z,5.44
2023-03-07T07:24:21.405Z,5.44
2023-03-07T07:25:21.398Z,5.45
2023-03-07T07:26:21.389Z,5.46
2023-03-07T07:27:21.373Z,5.46
2023-03-07T07:28:20.688Z,5.49
2023-03-07T07:29:21.653Z,5.50
2023-03-07T07:30:21.323Z,5.49
2023-03-07T07:31:21.355Z,5.51
2023-03-07T07:32:21.517Z,5.52
2023-03-07T07:33:20.689Z,5.54
2023-03-07T07:34:21.301Z,5.56
2023-03-07T07:35:21.271Z,5.58
2023-03-07T07:36:22.883Z,5.59
2023-03-07T07:37:21.265Z,5.61
2023-03-07T07:38:21.268Z,5.62
2023-03-07T07:39:21.256Z,5.63
2023-03-07T07:40:20.567Z,5.65
2023-03-07T07:41:21.225Z,5.67
2023-03-07T07:42:21.218Z,5.67
2023-03-07T07:43:21.206Z,5.69
2023-03-07T07:44:21.199Z,5.68
2023-03-07T07:45:21.169Z,5.69
2023-03-07T07:46:21.221Z,5.70
2023-03-07T07:47:20.521Z,5.72
2023-03-07T07:48:21.153Z,5.72
2023-03-07T07:49:21.143Z,5.73
2023-03-07T07:50:22.404Z,5.73
2023-03-07T07:51:21.136Z,5.75
2023-03-07T07:52:21.103Z,5.76
2023-03-07T07:53:21.101Z,5.80
2023-03-07T07:54:20.422Z,5.84
2023-03-07T07:55:21.089Z,5.86
2023-03-07T07:56:20.418Z,5.88
2023-03-07T07:57:22.698Z,5.91
2023-03-07T07:58:20.387Z,5.94
2023-03-07T07:59:21.047Z,5.97
2023-03-07T08:00:20.383Z,5.99
2023-03-07T08:01:20.344Z,6.01
2023-03-07T08:02:21.107Z,6.04
2023-03-07T08:03:20.339Z,6.07
2023-03-07T08:04:21.006Z,6.11
2023-03-07T08:05:20.968Z,6.15
2023-03-07T08:06:20.966Z,6.19
2023-03-07T08:07:20.295Z,6.22
2023-03-07T08:08:20.957Z,6.25
2023-03-07T08:09:20.938Z,6.29
2023-03-07T08:10:20.915Z,6.30
2023-03-07T08:11:20.268Z,6.33
2023-03-07T08:12:20.958Z,6.34
2023-03-07T08:13:20.894Z,6.34
2023-03-07T08:14:20.881Z,6.34
2023-03-07T08:15:20.254Z,6.34
2023-03-07T08:16:20.864Z,6.34
2023-03-07T08:17:20.191Z,6.34
2023-03-07T08:18:20.840Z,6.34
2023-03-07T08:19:20.829Z,6.33
2023-03-07T08:20:20.802Z,6.33
2023-03-07T08:21:20.821Z,6.32
2023-03-07T08:22:20.138Z,6.31
2023-03-07T08:23:20.173Z,6.30
2023-03-07T08:24:29.294Z,6.29
2023-03-07T08:25:21.164Z,6.28
2023-03-07T08:26:20.102Z,6.28
2023-03-07T08:27:20.752Z,6.28
2023-03-07T08:28:20.750Z,6.28
2023-03-07T08:29:20.728Z,6.29
2023-03-07T08:30:20.721Z,6.29
2023-03-07T08:31:20.195Z,6.30
2023-03-07T08:32:20.000Z,6.31
2023-03-07T08:33:20.696Z,6.32
2023-03-07T08:34:20.963Z,6.32
2023-03-07T08:35:20.936Z,6.33
2023-03-07T08:36:20.642Z,6.34
2023-03-07T08:37:20.643Z,6.34
2023-03-07T08:38:20.646Z,6.35
2023-03-07T08:39:20.913Z,6.37
2023-03-07T08:40:20.616Z,6.38
2023-03-07T08:41:20.586Z,6.40
2023-03-07T08:42:20.649Z,6.41
2023-03-07T08:43:20.586Z,6.42
2023-03-07T08:44:20.571Z,6.44
2023-03-07T08:45:21.834Z,6.44
2023-03-07T08:46:19.944Z,6.46
2023-03-07T08:47:20.533Z,6.46
2023-03-07T08:48:19.841Z,6.47
2023-03-07T08:49:20.517Z,6.47
2023-03-07T08:50:19.843Z,6.47
2023-03-07T08:51:20.479Z,6.47
2023-03-07T08:52:20.480Z,6.46
2023-03-07T08:53:20.469Z,6.46
2023-03-07T08:54:20.460Z,6.46
2023-03-07T08:55:19.771Z,6.47
2023-03-07T08:56:20.423Z,6.47
2023-03-07T08:57:20.435Z,6.48
2023-03-07T08:58:20.422Z,6.48
2023-03-07T08:59:20.409Z,6.47
2023-03-07T09:00:20.398Z,6.45
2023-03-07T09:01:20.404Z,6.44
2023-03-07T09:02:20.638Z,6.43
2023-03-07T09:03:19.709Z,6.42
2023-03-07T09:04:19.785Z,6.41
2023-03-07T09:05:20.347Z,6.38
2023-03-07T09:06:20.325Z,6.36
2023-03-07T09:07:20.319Z,6.35
2023-03-07T09:08:20.308Z,6.32
2023-03-07T09:09:20.298Z,6.33
2023-03-07T09:10:20.290Z,6.33
2023-03-07T09:11:21.059Z,6.33
2023-03-07T09:12:21.008Z,6.32
2023-03-07T09:13:20.260Z,6.31
2023-03-07T09:14:20.247Z,6.31
2023-03-07T09:15:20.231Z,6.30
2023-03-07T09:16:19.632Z,6.30
2023-03-07T09:17:20.220Z,6.30
2023-03-07T09:18:20.203Z,6.31
2023-03-07T09:19:20.197Z,6.29
2023-03-07T09:20:20.192Z,6.28
2023-03-07T09:21:20.166Z,6.27
2023-03-07T09:22:20.163Z,6.27
2023-03-07T09:23:20.156Z,6.27
2023-03-07T09:24:20.146Z,6.28
2023-03-07T09:25:20.140Z,6.30
2023-03-07T09:26:20.119Z,6.32
2023-03-07T09:27:20.122Z,6.36
2023-03-07T09:28:20.112Z,6.39
2023-03-07T09:29:20.095Z,6.42
2023-03-07T09:30:19.416Z,6.45
2023-03-07T09:31:20.094Z,6.48
2023-03-07T09:32:19.409Z,6.50
2023-03-07T09:33:20.050Z,6.51
2023-03-07T09:34:20.037Z,6.53
2023-03-07T09:35:20.031Z,6.54
2023-03-07T09:36:19.998Z,6.54
2023-03-07T09:37:20.009Z,6.55
2023-03-07T09:38:20.017Z,6.55
2023-03-07T09:39:20.043Z,6.56
2023-03-07T09:40:19.995Z,6.57
2023-03-07T09:41:19.950Z,6.60
2023-03-07T09:42:19.955Z,6.62
2023-03-07T09:43:19.261Z,6.64
2023-03-07T09:44:19.929Z,6.67
2023-03-07T09:45:19.269Z,6.71
2023-03-07T09:46:19.283Z,6.75
2023-03-07T09:47:19.906Z,6.79
2023-03-07T09:48:19.889Z,6.86
2023-03-07T09:49:19.907Z,6.89
2023-03-07T09:50:19.205Z,6.93
2023-03-07T09:51:19.216Z,6.97
2023-03-07T09:52:19.851Z,7.01
2023-03-07T09:53:19.854Z,7.06
2023-03-07T09:54:19.141Z,7.09
2023-03-07T09:55:19.821Z,7.13
2023-03-07T09:56:19.794Z,7.16
2023-03-07T09:57:19.800Z,7.21
2023-03-07T09:58:19.793Z,7.26
2023-03-07T09:59:23.229Z,7.31
2023-03-07T10:00:19.785Z,7.38
2023-03-07T10:01:19.747Z,7.45
2023-03-07T10:02:19.079Z,7.53
2023-03-07T10:03:19.762Z,7.62
2023-03-07T10:04:19.758Z,7.71
2023-03-07T10:05:19.731Z,7.81
2023-03-07T10:06:19.701Z,7.91
2023-03-07T10:07:19.693Z,8.02
2023-03-07T10:08:19.678Z,8.13
2023-03-07T10:09:19.798Z,8.24
2023-03-07T10:10:19.668Z,8.34
2023-03-07T10:11:19.688Z,8.42
2023-03-07T10:12:19.649Z,8.52
2023-03-07T10:13:19.624Z,8.59
2023-03-07T10:14:19.655Z,8.68
2023-03-07T10:15:19.607Z,8.77
2023-03-07T10:16:20.169Z,8.83
2023-03-07T10:17:19.586Z,8.90
2023-03-07T10:18:19.576Z,8.98
2023-03-07T10:19:18.887Z,9.03
2023-03-07T10:20:19.628Z,9.10
2023-03-07T10:21:18.898Z,9.16
2023-03-07T10:22:18.847Z,9.20
2023-03-07T10:23:21.526Z,9.25
2023-03-07T10:24:19.533Z,9.31
2023-03-07T10:25:19.517Z,9.37
2023-03-07T10:26:18.836Z,9.45
2023-03-07T10:27:18.821Z,9.54
2023-03-07T10:28:18.786Z,9.61
2023-03-07T10:29:19.466Z,9.65
2023-03-07T10:30:18.763Z,9.68
2023-03-07T10:31:18.784Z,9.75
2023-03-07T10:32:19.445Z,9.82
2023-03-07T10:33:19.417Z,9.88
2023-03-07T10:34:26.599Z,9.93
2023-03-07T10:35:19.705Z,9.99
2023-03-07T10:36:18.782Z,10.02
2023-03-07T10:37:19.382Z,10.06
2023-03-07T10:38:19.355Z,10.10
2023-03-07T10:39:20.595Z,10.14
2023-03-07T10:40:19.377Z,10.18
2023-03-07T10:41:19.315Z,10.21
2023-03-07T10:42:18.645Z,10.25
2023-03-07T10:43:18.644Z,10.27
2023-03-07T10:44:18.633Z,10.28
2023-03-07T10:45:19.282Z,10.29
2023-03-07T10:46:27.459Z,10.31
2023-03-07T10:47:21.045Z,10.34
2023-03-07T10:48:19.245Z,10.38
2023-03-07T10:49:19.235Z,10.43
2023-03-07T10:50:18.630Z,10.50
2023-03-07T10:51:18.555Z,10.58
2023-03-07T10:52:19.214Z,10.64
2023-03-07T10:53:18.511Z,10.66
2023-03-07T10:54:18.508Z,10.67
2023-03-07T10:55:18.525Z,10.65
2023-03-07T10:56:19.150Z,10.61
2023-03-07T10:57:19.189Z,10.52
2023-03-07T10:58:19.145Z,10.40
2023-03-07T10:59:18.450Z,10.33
2023-03-07T11:00:18.464Z,10.28
2023-03-07T11:01:18.518Z,10.26
2023-03-07T11:02:18.485Z,10.24
2023-03-07T11:03:18.428Z,10.20
2023-03-07T11:04:18.418Z,10.16
2023-03-07T11:05:19.071Z,10.10
2023-03-07T11:06:18.385Z,10.06
2023-03-07T11:07:19.044Z,10.08
2023-03-07T11:08:19.034Z,10.09
2023-03-07T11:09:19.041Z,10.09
2023-03-07T11:10:19.007Z,10.06
2023-03-07T11:11:18.987Z,10.02
2023-03-07T11:12:18.343Z,10.00
2023-03-07T11:13:18.976Z,9.98
2023-03-07T11:14:19.135Z,9.95
2023-03-07T11:15:18.956Z,9.90
2023-03-07T11:16:19.002Z,9.87
2023-03-07T11:17:18.940Z,9.88
2023-03-07T11:18:18.237Z,9.92
2023-03-07T11:19:18.929Z,9.96
2023-03-07T11:20:19.015Z,9.98
2023-03-07T11:21:18.861Z,10.00
2023-03-07T11:22:19.137Z,10.03
2023-03-07T11:23:18.871Z,10.02
2023-03-07T11:24:18.968Z,10.02
2023-03-07T11:25:18.861Z,10.07
2023-03-07T11:26:18.818Z,10.17
2023-03-07T11:27:18.828Z,10.33
2023-03-07T11:28:18.829Z,10.46
2023-03-07T11:29:18.116Z,10.61
2023-03-07T11:30:18.787Z,10.75
2023-03-07T11:31:18.783Z,10.90
2023-03-07T11:32:18.799Z,10.99
2023-03-07T11:33:18.767Z,11.01
2023-03-07T11:34:18.088Z,11.02
2023-03-07T11:35:18.060Z,11.05
2023-03-07T11:36:18.729Z,11.07
2023-03-07T11:37:18.700Z,11.05
2023-03-07T11:38:18.715Z,11.03
2023-03-07T11:39:18.706Z,11.02
2023-03-07T11:40:17.998Z,11.02
2023-03-07T11:41:18.012Z,11.00
2023-03-07T11:42:18.651Z,10.98
2023-03-07T11:43:18.660Z,10.98
2023-03-07T11:44:18.663Z,11.00
2023-03-07T11:45:17.954Z,11.04
2023-03-07T11:46:17.961Z,11.06
2023-03-07T11:47:17.950Z,11.06
2023-03-07T11:48:18.603Z,11.09
2023-03-07T11:49:21.374Z,11.14
2023-03-07T11:50:17.942Z,11.20
2023-03-07T11:51:17.893Z,11.26
2023-03-07T11:52:17.887Z,11.29
2023-03-07T11:53:17.873Z,11.32
2023-03-07T11:54:18.546Z,11.36
2023-03-07T11:55:18.536Z,11.36
2023-03-07T11:56:17.870Z,11.35
2023-03-07T11:57:18.494Z,11.33
2023-03-07T11:58:18.503Z,11.31
2023-03-07T11:59:18.501Z,11.27
2023-03-07T12:00:18.480Z,11.21
2023-03-07T12:01:18.473Z,11.19
2023-03-07T12:02:18.453Z,11.17
2023-03-07T12:03:18.461Z,11.14
2023-03-07T12:04:17.761Z,11.12
2023-03-07T12:05:18.468Z,11.10
2023-03-07T12:06:17.724Z,11.06
2023-03-07T12:07:18.392Z,11.01
2023-03-07T12:08:18.401Z,10.95
2023-03-07T12:09:18.405Z,10.89
2023-03-07T12:10:17.683Z,10.83
2023-03-07T12:11:18.367Z,10.77
2023-03-07T12:12:18.338Z,10.73
2023-03-07T12:13:19.574Z,10.69
2023-03-07T12:14:17.642Z,10.66
2023-03-07T12:15:18.314Z,10.61
2023-03-07T12:16:18.367Z,10.56
2023-03-07T12:17:18.286Z,10.53
2023-03-07T12:18:18.305Z,10.52
2023-03-07T12:19:18.365Z,10.51
2023-03-07T12:20:18.268Z,10.53
2023-03-07T12:21:17.567Z,10.54
2023-03-07T12:22:17.581Z,10.55
2023-03-07T12:23:17.548Z,10.56
2023-03-07T12:24:18.237Z,10.57
2023-03-07T12:25:18.238Z,10.53
2023-03-07T12:26:17.510Z,10.48
2023-03-07T12:27:17.532Z,10.42
2023-03-07T12:28:17.497Z,10.39
2023-03-07T12:29:18.189Z,10.37
2023-03-07T12:30:18.157Z,10.36
2023-03-07T12:31:18.206Z,10.39
2023-03-07T12:32:18.357Z,10.43
2023-03-07T12:33:17.664Z,10.50
2023-03-07T12:34:18.120Z,10.57
2023-03-07T12:35:18.111Z,10.66
2023-03-07T12:36:18.137Z,10.77
2023-03-07T12:37:18.083Z,10.88
2023-03-07T12:38:17.383Z,11.00
2023-03-07T12:39:17.429Z,11.11
2023-03-07T12:40:17.371Z,11.20
2023-03-07T12:41:18.060Z,11.29
2023-03-07T12:42:18.032Z,11.35
2023-03-07T12:43:18.021Z,11.38
2023-03-07T12:44:17.335Z,11.39
2023-03-07T12:45:18.092Z,11.41
2023-03-07T12:46:18.022Z,11.43
2023-03-07T12:47:17.322Z,11.45
2023-03-07T12:48:17.997Z,11.48
2023-03-07T12:49:17.977Z,11.50
2023-03-07T12:50:17.273Z,11.54
2023-03-07T12:51:17.957Z,11.59
2023-03-07T12:52:17.915Z,11.62
2023-03-07T12:53:17.927Z,11.67
2023-03-07T12:54:17.908Z,11.71
2023-03-07T12:55:17.898Z,11.72
2023-03-07T12:56:17.198Z,11.72
2023-03-07T12:57:17.196Z,11.71
2023-03-07T12:58:17.882Z,11.70
2023-03-07T12:59:17.857Z,11.70
2023-03-07T13:00:17.849Z,11.72
2023-03-07T13:01:17.909Z,11.73
2023-03-07T13:02:17.806Z,11.73
2023-03-07T13:03:17.125Z,11.74
2023-03-07T13:04:17.215Z,11.76
2023-03-07T13:05:17.866Z,11.76
2023-03-07T13:06:17.777Z,11.77
2023-03-07T13:07:17.748Z,11.80
2023-03-07T13:08:17.062Z,11.84
2023-03-07T13:09:17.054Z,11.85
2023-03-07T13:10:17.724Z,11.86
2023-03-07T13:11:17.776Z,11.87
2023-03-07T13:12:17.695Z,11.87
2023-03-07T13:13:17.016Z,11.89